sensor_id;sensor_type;location;lat;lon;timestamp;pressure;altitude;pressure_sealevel;temperature;humidity
24868;BME280;12941;48.698;9.310;2023-08-17T00:00:59;97983.2;;;26.58;70.16
24868;BME280;12941;48.698;9.310;2023-08-17T00:01:59;97977.9;;;26.58;70.016
24868;BME280;12941;48.698;9.310;2023-08-17T00:03:04;97970;;;26.58;70.049
24868;BME280;12941;48.698;9.310;2023-08-17T00:04:04;97974.5;;;26.58;69.958
24868;BME280;12941;48.698;9.310;2023-08-17T00:05:04;97970.4;;;26.55;70.099
24868;BME280;12941;48.698;9.310;2023-08-17T00:06:09;97971.2;;;26.56;70.111
24868;BME280;12941;48.698;9.310;2023-08-17T00:07:14;97972;;;26.56;70.156
24868;BME280;12941;48.698;9.310;2023-08-17T00:08:14;97967.6;;;26.57;70.269
24868;BME280;12941;48.698;9.310;2023-08-17T00:09:14;97968.4;;;26.57;70.068
24868;BME280;12941;48.698;9.310;2023-08-17T00:10:14;97971.2;;;26.56;69.855
24868;BME280;12941;48.698;9.310;2023-08-17T00:11:14;97971.90000000001;;;26.58;70.014
24868;BME280;12941;48.698;9.310;2023-08-17T00:12:14;97962.5;;;26.55;70.165
24868;BME280;12941;48.698;9.310;2023-08-17T00:13:19;97966.3;;;26.53;70.417
24868;BME280;12941;48.698;9.310;2023-08-17T00:14:24;97966.3;;;26.53;70.718
24868;BME280;12941;48.698;9.310;2023-08-17T00:15:24;97958.4;;;26.53;70.618
24868;BME280;12941;48.698;9.310;2023-08-17T00:16:31;97970;;;26.52;70.694
24868;BME280;12941;48.698;9.310;2023-08-17T00:17:34;97973.2;;;26.54;70.776
24868;BME280;12941;48.698;9.310;2023-08-17T00:18:39;97974;;;26.54;70.978
24868;BME280;12941;48.698;9.310;2023-08-17T00:19:39;97972.2;;;26.55;71.188
24868;BME280;12941;48.698;9.310;2023-08-17T00:20:40;97972.2;;;26.55;70.999
24868;BME280;12941;48.698;9.310;2023-08-17T00:21:45;97972;;;26.56;71.337
24868;BME280;12941;48.698;9.310;2023-08-17T00:22:44;97970.9;;;26.59;71.452
24868;BME280;12941;48.698;9.310;2023-08-17T00:23:50;97972.5;;;26.6;71.309
24868;BME280;12941;48.698;9.310;2023-08-17T00:24:50;97969;;;26.59;71.196
24868;BME280;12941;48.698;9.310;2023-08-17T00:25:50;97967.2;;;26.6;71.309
24868;BME280;12941;48.698;9.310;2023-08-17T00:26:54;97968;;;26.6;70.831
24868;BME280;12941;48.698;9.310;2023-08-17T00:28:01;97965.59999999999;;;26.59;70.316
24868;BME280;12941;48.698;9.310;2023-08-17T00:29:05;97958.7;;;26.58;69.98
24868;BME280;12941;48.698;9.310;2023-08-17T00:30:05;97961.7;;;26.55;69.629
24868;BME280;12941;48.698;9.310;2023-08-17T00:31:05;97962.09999999999;;;26.52;69.77
24868;BME280;12941;48.698;9.310;2023-08-17T00:32:10;97958;;;26.49;69.856
24868;BME280;12941;48.698;9.310;2023-08-17T00:33:15;97959.79999999999;;;26.49;70.133
24868;BME280;12941;48.698;9.310;2023-08-17T00:34:20;97959.79999999999;;;26.49;70.222
24868;BME280;12941;48.698;9.310;2023-08-17T00:35:20;97956.5;;;26.47;70.197
24868;BME280;12941;48.698;9.310;2023-08-17T00:36:25;97950.5;;;26.46;70.186
24868;BME280;12941;48.698;9.310;2023-08-17T00:37:25;97951.3;;;26.47;70.342
24868;BME280;12941;48.698;9.310;2023-08-17T00:38:25;97951.3;;;26.47;70.264
24868;BME280;12941;48.698;9.310;2023-08-17T00:39:25;97961.8;;;26.47;70.431
24868;BME280;12941;48.698;9.310;2023-08-17T00:40:30;97954.9;;;26.46;70.374
24868;BME280;12941;48.698;9.310;2023-08-17T00:41:30;97956.9;;;26.43;70.204
24868;BME280;12941;48.698;9.310;2023-08-17T00:42:30;97958.90000000001;;;26.41;70.223
24868;BME280;12941;48.698;9.310;2023-08-17T00:43:32;97954;;;26.38;70.385
24868;BME280;12941;48.698;9.310;2023-08-17T00:44:35;97956.8;;;26.37;70.438
24868;BME280;12941;48.698;9.310;2023-08-17T00:45:40;97957;;;26.35;70.324
24868;BME280;12941;48.698;9.310;2023-08-17T00:46:40;97943.2;;;26.33;70.221
24868;BME280;12941;48.698;9.310;2023-08-17T00:47:45;97951.09999999999;;;26.33;70.777
24868;BME280;12941;48.698;9.310;2023-08-17T00:48:45;97944;;;26.34;70.499
24868;BME280;12941;48.698;9.310;2023-08-17T00:49:50;97959.6;;;26.35;71.114
24868;BME280;12941;48.698;9.310;2023-08-17T00:50:50;97944.8;;;26.34;70.99
24868;BME280;12941;48.698;9.310;2023-08-17T00:51:50;97955.3;;;26.34;70.534
24868;BME280;12941;48.698;9.310;2023-08-17T00:52:50;97951.09999999999;;;26.33;70.589
24868;BME280;12941;48.698;9.310;2023-08-17T00:53:56;97959;;;26.33;70.944
24868;BME280;12941;48.698;9.310;2023-08-17T00:54:55;97951.09999999999;;;26.33;70.744
24868;BME280;12941;48.698;9.310;2023-08-17T00:55:55;97955;;;26.37;70.919
24868;BME280;12941;48.698;9.310;2023-08-17T00:56:55;97957.3;;;26.4;70.699
24868;BME280;12941;48.698;9.310;2023-08-17T00:57:55;97952.8;;;26.41;70.611
24868;BME280;12941;48.698;9.310;2023-08-17T00:59:00;97949.40000000001;;;26.4;70.866
24868;BME280;12941;48.698;9.310;2023-08-17T01:00:06;97953.59999999999;;;26.41;71.114
24868;BME280;12941;48.698;9.310;2023-08-17T01:01:05;97951.5;;;26.45;71.085
24868;BME280;12941;48.698;9.310;2023-08-17T01:02:10;97952.9;;;26.48;70.944
24868;BME280;12941;48.698;9.310;2023-08-17T01:03:10;97951.3;;;26.47;70.731
24868;BME280;12941;48.698;9.310;2023-08-17T01:04:15;97945.2;;;26.46;70.431
24868;BME280;12941;48.698;9.310;2023-08-17T01:05:15;97941.7;;;26.46;70.541
24868;BME280;12941;48.698;9.310;2023-08-17T01:06:15;97938.9;;;26.47;70.787
24868;BME280;12941;48.698;9.310;2023-08-17T01:07:15;97936.5;;;26.46;71.042
24868;BME280;12941;48.698;9.310;2023-08-17T01:08:15;97946;;;26.47;71.21
24868;BME280;12941;48.698;9.310;2023-08-17T01:09:20;97938.09999999999;;;26.47;71.188
24868;BME280;12941;48.698;9.310;2023-08-17T01:10:25;97939.9;;;26.46;71.411
24868;BME280;12941;48.698;9.310;2023-08-17T01:11:26;97938.3;;;26.45;71.296
24868;BME280;12941;48.698;9.310;2023-08-17T01:12:31;97934.90000000001;;;26.44;71.141
24868;BME280;12941;48.698;9.310;2023-08-17T01:13:31;97940.8;;;26.47;71.099
24868;BME280;12941;48.698;9.310;2023-08-17T01:14:31;97935.5;;;26.47;71.055
24868;BME280;12941;48.698;9.310;2023-08-17T01:15:36;97942.4;;;26.48;71.156
24868;BME280;12941;48.698;9.310;2023-08-17T01:16:42;97944.4;;;26.46;71.253
24868;BME280;12941;48.698;9.310;2023-08-17T01:17:47;97938.5;;;26.43;70.905
24868;BME280;12941;48.698;9.310;2023-08-17T01:18:45;97943.1;;;26.41;70.857
24868;BME280;12941;48.698;9.310;2023-08-17T01:19:45;97935.6;;;26.38;70.841
24868;BME280;12941;48.698;9.310;2023-08-17T01:20:50;97939.4;;;26.36;70.881
24868;BME280;12941;48.698;9.310;2023-08-17T01:21:57;97942.2;;;26.34;70.957
24868;BME280;12941;48.698;9.310;2023-08-17T01:22:55;97928.4;;;26.32;71.021
24868;BME280;12941;48.698;9.310;2023-08-17T01:24:02;97935.7;;;26.3;71.241
24868;BME280;12941;48.698;9.310;2023-08-17T01:25:00;97930.6;;;26.29;71.238
24868;BME280;12941;48.698;9.310;2023-08-17T01:26:05;97927.20000000001;;;26.28;71.138
24868;BME280;12941;48.698;9.310;2023-08-17T01:27:05;97929.8;;;26.28;71.449
24868;BME280;12941;48.698;9.310;2023-08-17T01:28:05;97922.7;;;26.29;71.315
24868;BME280;12941;48.698;9.310;2023-08-17T01:29:05;97926.8;;;26.31;71.297
24868;BME280;12941;48.698;9.310;2023-08-17T01:30:06;97921.6;;;26.31;71.252
24868;BME280;12941;48.698;9.310;2023-08-17T01:31:11;97933.7;;;26.32;71.422
24868;BME280;12941;48.698;9.310;2023-08-17T01:32:16;97926.8;;;26.31;71.52
24868;BME280;12941;48.698;9.310;2023-08-17T01:33:23;97928.4;;;26.32;71.589
24868;BME280;12941;48.698;9.310;2023-08-17T01:34:22;97927.59999999999;;;26.32;71.465
24868;BME280;12941;48.698;9.310;2023-08-17T01:35:28;97926.8;;;26.31;71.396
24868;BME280;12941;48.698;9.310;2023-08-17T01:36:31;97923.5;;;26.29;71.661
24868;BME280;12941;48.698;9.310;2023-08-17T01:37:36;97921.1;;;26.28;71.76
24868;BME280;12941;48.698;9.310;2023-08-17T01:38:40;97921.1;;;26.28;71.771
24868;BME280;12941;48.698;9.310;2023-08-17T01:39:43;97918.6;;;26.26;71.757
24868;BME280;12941;48.698;9.310;2023-08-17T01:40:40;97917.8;;;26.26;71.689
24868;BME280;12941;48.698;9.310;2023-08-17T01:41:45;97917;;;26.25;71.8
24868;BME280;12941;48.698;9.310;2023-08-17T01:42:50;97914.59999999999;;;26.24;71.72
24868;BME280;12941;48.698;9.310;2023-08-17T01:43:50;97917.4;;;26.22;71.828
24868;BME280;12941;48.698;9.310;2023-08-17T01:44:50;97914.70000000001;;;26.22;71.717
24868;BME280;12941;48.698;9.310;2023-08-17T01:45:50;97921;;;26.21;71.972
24868;BME280;12941;48.698;9.310;2023-08-17T01:46:55;97919.4;;;26.2;72.159
24868;BME280;12941;48.698;9.310;2023-08-17T01:47:55;97924;;;26.18;72.012
24868;BME280;12941;48.698;9.310;2023-08-17T01:49:00;97918.7;;;26.18;72.189
24868;BME280;12941;48.698;9.310;2023-08-17T01:50:05;97914.59999999999;;;26.16;72.285
24868;BME280;12941;48.698;9.310;2023-08-17T01:51:05;97909.6;;;26.14;72.229
24868;BME280;12941;48.698;9.310;2023-08-17T01:52:10;97916.5;;;26.15;72.462
24868;BME280;12941;48.698;9.310;2023-08-17T01:53:15;97921.7;;;26.15;72.295
24868;BME280;12941;48.698;9.310;2023-08-17T01:54:20;97912.2;;;26.14;72.25
24868;BME280;12941;48.698;9.310;2023-08-17T01:55:21;97910.6;;;26.13;71.824
24868;BME280;12941;48.698;9.310;2023-08-17T01:56:25;97916.8;;;26.12;72.057
24868;BME280;12941;48.698;9.310;2023-08-17T01:57:25;97917.2;;;26.09;71.818
24868;BME280;12941;48.698;9.310;2023-08-17T01:58:26;97908.6;;;26.07;71.738
24868;BME280;12941;48.698;9.310;2023-08-17T01:59:30;97915.9;;;26.05;71.534
24868;BME280;12941;48.698;9.310;2023-08-17T02:00:30;97922.29999999999;;;26.02;71.464
24868;BME280;12941;48.698;9.310;2023-08-17T02:01:36;97909.40000000001;;;26.01;71.518
24868;BME280;12941;48.698;9.310;2023-08-17T02:02:36;97919.9;;;26.01;71.873
24868;BME280;12941;48.698;9.310;2023-08-17T02:03:40;97923.5;;;26;71.971
24868;BME280;12941;48.698;9.310;2023-08-17T02:04:40;97926.09999999999;;;26;72.082
24868;BME280;12941;48.698;9.310;2023-08-17T02:05:45;97921.90000000001;;;25.99;72.247
24868;BME280;12941;48.698;9.310;2023-08-17T02:06:45;97921.5;;;26.02;71.996
24868;BME280;12941;48.698;9.310;2023-08-17T02:07:46;97925;;;26.02;72.22
24868;BME280;12941;48.698;9.310;2023-08-17T02:08:46;97920.5;;;26.03;72.377
24868;BME280;12941;48.698;9.310;2023-08-17T02:09:50;97923.5;;;26;72.549
24868;BME280;12941;48.698;9.310;2023-08-17T02:10:55;97919.1;;;26;72.695
24868;BME280;12941;48.698;9.310;2023-08-17T02:11:56;97915.8;;;25.98;73.036
24868;BME280;12941;48.698;9.310;2023-08-17T02:13:01;97924.1;;;26.02;72.963
24868;BME280;12941;48.698;9.310;2023-08-17T02:14:01;97921.3;;;26.03;72.833
24868;BME280;12941;48.698;9.310;2023-08-17T02:15:06;97917.9;;;26.03;72.744
24868;BME280;12941;48.698;9.310;2023-08-17T02:16:11;97921.3;;;26.03;72.144
24868;BME280;12941;48.698;9.310;2023-08-17T02:17:11;97924.8;;;26.04;72.121
24868;BME280;12941;48.698;9.310;2023-08-17T02:18:16;97921.2;;;26.05;72.413
24868;BME280;12941;48.698;9.310;2023-08-17T02:19:16;97920.3;;;26.04;72.167
24868;BME280;12941;48.698;9.310;2023-08-17T02:20:16;97922.79999999999;;;26.06;72.28
24868;BME280;12941;48.698;9.310;2023-08-17T02:21:21;97917.5;;;26.06;72.302
24868;BME280;12941;48.698;9.310;2023-08-17T02:22:26;97921;;;26.06;72.704
24868;BME280;12941;48.698;9.310;2023-08-17T02:23:26;97913.9;;;26.07;72.872
24868;BME280;12941;48.698;9.310;2023-08-17T02:24:31;97908.6;;;26.07;73.095
24868;BME280;12941;48.698;9.310;2023-08-17T02:25:37;97907.8;;;26.06;72.993
24868;BME280;12941;48.698;9.310;2023-08-17T02:26:36;97909.6;;;26.06;73.147
24868;BME280;12941;48.698;9.310;2023-08-17T02:27:36;97913.5;;;26.03;72.222
24868;BME280;12941;48.698;9.310;2023-08-17T02:28:36;97914.4;;;26.02;71.842
24868;BME280;12941;48.698;9.310;2023-08-17T02:29:41;97909.40000000001;;;26.01;72.052
24868;BME280;12941;48.698;9.310;2023-08-17T02:30:41;97910.6;;;25.98;71.758
24868;BME280;12941;48.698;9.310;2023-08-17T02:31:41;97912.40000000001;;;25.98;71.89
24868;BME280;12941;48.698;9.310;2023-08-17T02:32:46;97909.1;;;25.96;72.143
24868;BME280;12941;48.698;9.310;2023-08-17T02:33:51;97910.1;;;25.95;71.896
24868;BME280;12941;48.698;9.310;2023-08-17T02:34:51;97908.5;;;25.94;72.173
24868;BME280;12941;48.698;9.310;2023-08-17T02:35:56;97902.4;;;25.93;72.282
24868;BME280;12941;48.698;9.310;2023-08-17T02:36:56;97904;;;25.94;72.272
24868;BME280;12941;48.698;9.310;2023-08-17T02:37:56;97898.8;;;25.94;72.328
24868;BME280;12941;48.698;9.310;2023-08-17T02:38:56;97903.2;;;25.94;72.518
24868;BME280;12941;48.698;9.310;2023-08-17T02:39:56;97899.59999999999;;;25.95;72.441
24868;BME280;12941;48.698;9.310;2023-08-17T02:40:56;97893.5;;;25.94;72.706
24868;BME280;12941;48.698;9.310;2023-08-17T02:42:01;97896.8;;;25.96;72.277
24868;BME280;12941;48.698;9.310;2023-08-17T02:43:01;97889.9;;;25.95;72.43
24868;BME280;12941;48.698;9.310;2023-08-17T02:44:06;97895.3;;;25.94;72.706
24868;BME280;12941;48.698;9.310;2023-08-17T02:45:11;97892.1;;;25.92;72.703
24868;BME280;12941;48.698;9.310;2023-08-17T02:46:16;97897.5;;;25.9;72.512
24868;BME280;12941;48.698;9.310;2023-08-17T02:47:21;97889.59999999999;;;25.9;72.423
24868;BME280;12941;48.698;9.310;2023-08-17T02:48:22;97892.4;;;25.89;72.687
24868;BME280;12941;48.698;9.310;2023-08-17T02:49:26;97896.7;;;25.9;72.854
24868;BME280;12941;48.698;9.310;2023-08-17T02:50:26;97896.7;;;25.9;73.044
24868;BME280;12941;48.698;9.310;2023-08-17T02:51:26;97896.7;;;25.9;72.699
24868;BME280;12941;48.698;9.310;2023-08-17T02:52:33;97900.09999999999;;;25.9;72.834
24868;BME280;12941;48.698;9.310;2023-08-17T02:53:37;97900.3;;;25.89;72.809
24868;BME280;12941;48.698;9.310;2023-08-17T02:54:41;97900.7;;;25.86;72.926
24868;BME280;12941;48.698;9.310;2023-08-17T02:55:41;97895.8;;;25.83;72.922
24868;BME280;12941;48.698;9.310;2023-08-17T02:56:46;97894.2;;;25.82;72.932
24868;BME280;12941;48.698;9.310;2023-08-17T02:57:51;97891.7;;;25.8;72.863
24868;BME280;12941;48.698;9.310;2023-08-17T02:58:51;97896.1;;;25.8;72.64
24868;BME280;12941;48.698;9.310;2023-08-17T02:59:56;97892.1;;;25.77;72.49
24868;BME280;12941;48.698;9.310;2023-08-17T03:01:02;97888.8;;;25.75;72.32
24868;BME280;12941;48.698;9.310;2023-08-17T03:02:01;97886.3;;;25.73;72.195
24868;BME280;12941;48.698;9.310;2023-08-17T03:03:06;97890.3;;;25.69;72.301
24868;BME280;12941;48.698;9.310;2023-08-17T03:04:11;97881.2;;;25.65;72.204
24868;BME280;12941;48.698;9.310;2023-08-17T03:05:17;97879.6;;;25.64;72.304
24868;BME280;12941;48.698;9.310;2023-08-17T03:06:21;97876.59999999999;;;25.59;72.284
24868;BME280;12941;48.698;9.310;2023-08-17T03:07:26;97874.40000000001;;;25.56;72.391
24868;BME280;12941;48.698;9.310;2023-08-17T03:08:27;97873.90000000001;;;25.53;72.74
24868;BME280;12941;48.698;9.310;2023-08-17T03:09:27;97870.6;;;25.51;72.893
24868;BME280;12941;48.698;9.310;2023-08-17T03:10:31;97872.6;;;25.49;72.934
24868;BME280;12941;48.698;9.310;2023-08-17T03:11:31;97877;;;25.48;73.089
24868;BME280;12941;48.698;9.310;2023-08-17T03:12:31;97873.8;;;25.46;73.251
24868;BME280;12941;48.698;9.310;2023-08-17T03:13:37;97873.8;;;25.46;73.296
24868;BME280;12941;48.698;9.310;2023-08-17T03:14:37;97875.40000000001;;;25.47;73.408
24868;BME280;12941;48.698;9.310;2023-08-17T03:15:37;97871;;;25.48;73.499
24868;BME280;12941;48.698;9.310;2023-08-17T03:16:41;97871;;;25.48;73.31
24868;BME280;12941;48.698;9.310;2023-08-17T03:17:41;97873.40000000001;;;25.49;73.278
24868;BME280;12941;48.698;9.310;2023-08-17T03:18:41;97868.8;;;25.51;73.525
24868;BME280;12941;48.698;9.310;2023-08-17T03:19:41;97865.20000000001;;;25.52;73.573
24868;BME280;12941;48.698;9.310;2023-08-17T03:20:47;97871.40000000001;;;25.51;73.27
24868;BME280;12941;48.698;9.310;2023-08-17T03:21:51;97868;;;25.51;73.803
24868;BME280;12941;48.698;9.310;2023-08-17T03:22:57;97862.8;;;25.51;73.836
24868;BME280;12941;48.698;9.310;2023-08-17T03:24:01;97865.20000000001;;;25.52;74.095
24868;BME280;12941;48.698;9.310;2023-08-17T03:25:07;97866.8;;;25.53;73.939
24868;BME280;12941;48.698;9.310;2023-08-17T03:26:07;97858;;;25.54;73.709
24868;BME280;12941;48.698;9.310;2023-08-17T03:27:11;97859.6;;;25.55;73.633
24868;BME280;12941;48.698;9.310;2023-08-17T03:28:17;97862.2;;;25.55;73.589
24868;BME280;12941;48.698;9.310;2023-08-17T03:29:21;97858;;;25.54;73.609
24868;BME280;12941;48.698;9.310;2023-08-17T03:30:21;97859;;;25.53;73.839
24868;BME280;12941;48.698;9.310;2023-08-17T03:31:27;97860.6;;;25.54;74.142
24868;BME280;12941;48.698;9.310;2023-08-17T03:32:27;97860.6;;;25.54;73.965
24868;BME280;12941;48.698;9.310;2023-08-17T03:33:31;97852.9;;;25.53;74.084
24868;BME280;12941;48.698;9.310;2023-08-17T03:34:31;97854.7;;;25.52;73.861
24868;BME280;12941;48.698;9.310;2023-08-17T03:35:37;97863.59999999999;;;25.51;73.747
24868;BME280;12941;48.698;9.310;2023-08-17T03:36:41;97861.90000000001;;;25.5;73.881
24868;BME280;12941;48.698;9.310;2023-08-17T03:37:41;97859.7;;;25.47;74.229
24868;BME280;12941;48.698;9.310;2023-08-17T03:38:47;97859.79999999999;;;25.45;74.229
24868;BME280;12941;48.698;9.310;2023-08-17T03:39:51;97861.8;;;25.43;74.214
24868;BME280;12941;48.698;9.310;2023-08-17T03:40:57;97865.3;;;25.44;74.348
24868;BME280;12941;48.698;9.310;2023-08-17T03:41:57;97865.3;;;25.44;74.569
24868;BME280;12941;48.698;9.310;2023-08-17T03:43:02;97856.4;;;25.45;74.504
24868;BME280;12941;48.698;9.310;2023-08-17T03:44:06;97863.3;;;25.46;74.528
24868;BME280;12941;48.698;9.310;2023-08-17T03:45:07;97864.09999999999;;;25.47;74.595
24868;BME280;12941;48.698;9.310;2023-08-17T03:46:17;97866.2;;;25.51;74.402
24868;BME280;12941;48.698;9.310;2023-08-17T03:47:17;97863.4;;;25.53;74.316
24868;BME280;12941;48.698;9.310;2023-08-17T03:48:22;97865.8;;;25.54;74.142
24868;BME280;12941;48.698;9.310;2023-08-17T03:49:22;97869.3;;;25.55;74.286
24868;BME280;12941;48.698;9.310;2023-08-17T03:50:27;97874.5;;;25.55;74.098
24868;BME280;12941;48.698;9.310;2023-08-17T03:51:27;97869.1;;;25.56;74.101
24868;BME280;12941;48.698;9.310;2023-08-17T03:52:27;97871.5;;;25.58;74.158
24868;BME280;12941;48.698;9.310;2023-08-17T03:53:27;97871.7;;;25.56;74.057
24868;BME280;12941;48.698;9.310;2023-08-17T03:54:27;97872.5;;;25.57;74.134
24868;BME280;12941;48.698;9.310;2023-08-17T03:55:32;97877;;;25.56;74.123
24868;BME280;12941;48.698;9.310;2023-08-17T03:56:32;97884.90000000001;;;25.56;74.189
24868;BME280;12941;48.698;9.310;2023-08-17T03:57:37;97878.8;;;25.56;74.565
24868;BME280;12941;48.698;9.310;2023-08-17T03:58:37;97877;;;25.56;74.423
24868;BME280;12941;48.698;9.310;2023-08-17T03:59:42;97877.59999999999;;;25.58;74.304
24868;BME280;12941;48.698;9.310;2023-08-17T04:00:42;97879.6;;;25.56;74.434
24868;BME280;12941;48.698;9.310;2023-08-17T04:01:42;97876;;;25.57;74.524
24868;BME280;12941;48.698;9.310;2023-08-17T04:02:47;97879.4;;;25.58;74.547
24868;BME280;12941;48.698;9.310;2023-08-17T04:03:47;97873.40000000001;;;25.57;74.535
24868;BME280;12941;48.698;9.310;2023-08-17T04:04:52;97875;;;25.58;74.393
24868;BME280;12941;48.698;9.310;2023-08-17T04:05:52;97878.59999999999;;;25.57;74.313
24868;BME280;12941;48.698;9.310;2023-08-17T04:06:57;97874.40000000001;;;25.56;74.334
24868;BME280;12941;48.698;9.310;2023-08-17T04:08:02;97878;;;25.55;74.41
24868;BME280;12941;48.698;9.310;2023-08-17T04:09:02;97887.2;;;25.51;74.535
24868;BME280;12941;48.698;9.310;2023-08-17T04:10:07;97882.3;;;25.48;74.799
24868;BME280;12941;48.698;9.310;2023-08-17T04:11:07;97881.5;;;25.48;74.886
24868;BME280;12941;48.698;9.310;2023-08-17T04:12:12;97887.5;;;25.48;75.076
24868;BME280;12941;48.698;9.310;2023-08-17T04:13:17;97879.8;;;25.47;75.149
24868;BME280;12941;48.698;9.310;2023-08-17T04:14:22;97885.90000000001;;;25.47;75.028
24868;BME280;12941;48.698;9.310;2023-08-17T04:15:27;97877.4;;;25.45;75.292
24868;BME280;12941;48.698;9.310;2023-08-17T04:16:27;97882.6;;;25.45;75.17
24868;BME280;12941;48.698;9.310;2023-08-17T04:17:27;97885.29999999999;;;25.45;75.126
24868;BME280;12941;48.698;9.310;2023-08-17T04:18:32;97885.1;;;25.47;75.271
24868;BME280;12941;48.698;9.310;2023-08-17T04:19:32;97891;;;25.49;75.065
24868;BME280;12941;48.698;9.310;2023-08-17T04:20:37;97885.7;;;25.49;75.088
24868;BME280;12941;48.698;9.310;2023-08-17T04:21:37;97890.8;;;25.5;75.18
24868;BME280;12941;48.698;9.310;2023-08-17T04:22:42;97889.8;;;25.51;75.323
24868;BME280;12941;48.698;9.310;2023-08-17T04:23:42;97883.90000000001;;;25.49;75.465
24868;BME280;12941;48.698;9.310;2023-08-17T04:24:42;97888.5;;;25.47;75.495
24868;BME280;12941;48.698;9.310;2023-08-17T04:25:47;97887.90000000001;;;25.45;75.437
24868;BME280;12941;48.698;9.310;2023-08-17T04:26:47;97890.4;;;25.47;75.482
24868;BME280;12941;48.698;9.310;2023-08-17T04:27:47;97891.2;;;25.47;75.328
24868;BME280;12941;48.698;9.310;2023-08-17T04:28:47;97893.8;;;25.47;75.483
24868;BME280;12941;48.698;9.310;2023-08-17T04:29:52;97896.40000000001;;;25.47;75.406
24868;BME280;12941;48.698;9.310;2023-08-17T04:30:52;97896.40000000001;;;25.47;75.351
24868;BME280;12941;48.698;9.310;2023-08-17T04:31:53;97897.2;;;25.48;74.997
24868;BME280;12941;48.698;9.310;2023-08-17T04:32:57;97897.7;;;25.51;75.091
24868;BME280;12941;48.698;9.310;2023-08-17T04:33:57;97899.3;;;25.52;75.082
24868;BME280;12941;48.698;9.310;2023-08-17T04:35:02;97897.7;;;25.51;75.157
24868;BME280;12941;48.698;9.310;2023-08-17T04:36:02;97904.4;;;25.54;75.084
24868;BME280;12941;48.698;9.310;2023-08-17T04:37:07;97905.9;;;25.56;75.366
24868;BME280;12941;48.698;9.310;2023-08-17T04:38:12;97902.20000000001;;;25.57;75.246
24868;BME280;12941;48.698;9.310;2023-08-17T04:39:12;97902.20000000001;;;25.57;74.913
24868;BME280;12941;48.698;9.310;2023-08-17T04:40:15;97909.5;;;25.55;74.888
24868;BME280;12941;48.698;9.310;2023-08-17T04:41:17;97900.59999999999;;;25.56;75.2
24868;BME280;12941;48.698;9.310;2023-08-17T04:42:17;97905;;;25.56;74.787
24868;BME280;12941;48.698;9.310;2023-08-17T04:43:17;97904.2;;;25.55;75.099
24868;BME280;12941;48.698;9.310;2023-08-17T04:44:22;97914.70000000001;;;25.55;75.076
24868;BME280;12941;48.698;9.310;2023-08-17T04:45:22;97910.5;;;25.54;75.196
24868;BME280;12941;48.698;9.310;2023-08-17T04:46:27;97914.70000000001;;;25.55;75.242
24868;BME280;12941;48.698;9.310;2023-08-17T04:47:27;97907.2;;;25.52;75.193
24868;BME280;12941;48.698;9.310;2023-08-17T04:48:27;97910.6;;;25.53;75.104
24868;BME280;12941;48.698;9.310;2023-08-17T04:49:32;97911.5;;;25.53;75.049
24868;BME280;12941;48.698;9.310;2023-08-17T04:50:32;97901.3;;;25.5;75.213
24868;BME280;12941;48.698;9.310;2023-08-17T04:51:33;97906.6;;;25.5;75.412
24868;BME280;12941;48.698;9.310;2023-08-17T04:52:33;97906.9;;;25.47;75.694
24868;BME280;12941;48.698;9.310;2023-08-17T04:53:33;97912.5;;;25.44;75.878
24868;BME280;12941;48.698;9.310;2023-08-17T04:54:37;97911.90000000001;;;25.42;76.118
24868;BME280;12941;48.698;9.310;2023-08-17T04:55:37;97914.8;;;25.39;76.104
24868;BME280;12941;48.698;9.310;2023-08-17T04:56:43;97906.3;;;25.37;76.32
24868;BME280;12941;48.698;9.310;2023-08-17T04:57:47;97907.2;;;25.37;76.444
24868;BME280;12941;48.698;9.310;2023-08-17T04:58:53;97909.3;;;25.34;76.294
24868;BME280;12941;48.698;9.310;2023-08-17T04:59:56;97916.8;;;25.37;76.465
24868;BME280;12941;48.698;9.310;2023-08-17T05:00:58;97914.8;;;25.39;76.735
24868;BME280;12941;48.698;9.310;2023-08-17T05:02:02;97918.3;;;25.39;76.735
24868;BME280;12941;48.698;9.310;2023-08-17T05:03:07;97928;;;25.39;76.647
24868;BME280;12941;48.698;9.310;2023-08-17T05:04:07;97920.1;;;25.39;76.358
24868;BME280;12941;48.698;9.310;2023-08-17T05:05:09;97921.3;;;25.36;76.409
24868;BME280;12941;48.698;9.310;2023-08-17T05:06:13;97922.5;;;25.34;76.937
24868;BME280;12941;48.698;9.310;2023-08-17T05:07:17;97928.5;;;25.34;77.094
24868;BME280;12941;48.698;9.310;2023-08-17T05:08:23;97922.79999999999;;;25.31;77.021
24868;BME280;12941;48.698;9.310;2023-08-17T05:09:23;97925.59999999999;;;25.29;76.718
24868;BME280;12941;48.698;9.310;2023-08-17T05:10:23;97924.8;;;25.29;76.929
24868;BME280;12941;48.698;9.310;2023-08-17T05:11:23;97916.9;;;25.29;77.184
24868;BME280;12941;48.698;9.310;2023-08-17T05:12:23;97922.79999999999;;;25.31;77.198
24868;BME280;12941;48.698;9.310;2023-08-17T05:13:27;97926.09999999999;;;25.33;77.157
24868;BME280;12941;48.698;9.310;2023-08-17T05:14:33;97927.5;;;25.35;77.115
24868;BME280;12941;48.698;9.310;2023-08-17T05:15:33;97929.6;;;25.4;77.224
24868;BME280;12941;48.698;9.310;2023-08-17T05:16:38;97919.8;;;25.42;77.038
24868;BME280;12941;48.698;9.310;2023-08-17T05:17:43;97926.5;;;25.44;76.655
24868;BME280;12941;48.698;9.310;2023-08-17T05:18:43;97927.09999999999;;;25.47;76.647
24868;BME280;12941;48.698;9.310;2023-08-17T05:19:47;97931.2;;;25.49;76.607
24868;BME280;12941;48.698;9.310;2023-08-17T05:20:47;97924;;;25.51;76.389
24868;BME280;12941;48.698;9.310;2023-08-17T05:21:53;97921;;;25.54;76.672
24868;BME280;12941;48.698;9.310;2023-08-17T05:22:57;97931.8;;;25.59;76.78
24868;BME280;12941;48.698;9.310;2023-08-17T05:24:03;97925.3;;;25.62;75.953
24868;BME280;12941;48.698;9.310;2023-08-17T05:25:03;97920.3;;;25.6;75.616